Página principal
METAR-TAF:

METAR-TAF

Aeroportos :

Aeroporto Internacional de Mitiga

Trípoli, Líbia

latitude: 32-54N, longitude: 13-17E, altura: 11 m

METAR: em falta

Hora: 08:52 (06:52 UTC)

Previsão

O boletim foi feito há 19 horas e 52 minutos, às 11:00 UTC
Previsão válida de 11 às 12 UTC a 12 às 12 UTC
Vento 15 kt de es-nordeste
Visibilidade 10 km ou mais
Poucas nuvensa uma altura de 3000 ft
Tornando-se
de 12 às 00 UTC a 12 às 02 UTC
Vento 5 kt de es-sudeste
Tornando-se
de 12 às 10 UTC a 12 às 12 UTC
Vento 15 kt de es-nordeste

TAF: HLLM 111100Z 1112/1212 06015KT 9999 FEW030 BECMG 1200/1202 12005KT BECMG 1210/1212 06015KT

Observações e previsões do tempo de mais de 4000 aeroportos (mensagens METAR e TAF).

As estações disponíveis são os pontos amarelos e vermelhos sobre o mapa.

Mova o rato sobre o mapa para ver o nome da estação.

Depois clique no ponto para visualizar as observações e previsões meteorológicas.

Para alterar o mapa : clique nos botões verdes com uma cruz preta para aumentar o zoom; no botão verde com uma pitada de zoom; ou nas setas verdes para mapas adjacentes.


METAR-TAF: